Time;durP1;ratioP1;P1;durP2;ratioP2;P2;SDS_P1;SDS_P2;PMS_P1;PMS_P2;Temp;Humidity;BMP_temperature;BMP_pressure;BME280_temperature;BME280_humidity;BME280_pressure;Samples;Min_cycle;Max_cycle;Signal;HPM_P1;HPM_P2
2021/07/08 00:00:51;;;;;;;7.43;4.21;;;;;;;;;;372848;106;1962058;-73
2021/07/08 00:02:03;;;;;;;8.79;3.94;;;;;;;;;;394079;104;1985899;-72
2021/07/08 00:03:09;;;;;;;8.29;4.77;;;;;;;;;;375315;106;1965037;-73
2021/07/08 00:04:14;;;;;;;9.63;4.23;;;;;;;;;;375680;105;1962036;-73
2021/07/08 00:05:20;;;;;;;6.94;4.29;;;;;;;;;;376022;106;1962755;-72
2021/07/08 00:06:26;;;;;;;8.38;4.49;;;;;;;;;;371251;107;1962045;-74
2021/07/08 00:07:31;;;;;;;9.24;4.37;;;;;;;;;;371013;108;1961951;-73
2021/07/08 00:08:36;;;;;;;9.14;4.34;;;;;;;;;;371691;108;1961951;-73
2021/07/08 00:09:41;;;;;;;9.49;4.64;;;;;;;;;;371109;107;1961944;-73
2021/07/08 00:10:55;;;;;;;8.95;4.17;;;;;;;;;;390314;104;1986050;-72
2021/07/08 00:12:00;;;;;;;8.85;4.08;;;;;;;;;;350624;107;1971077;-70
2021/07/08 00:13:05;;;;;;;7.57;4.32;;;;;;;;;;312212;107;2293220;-72
2021/07/08 00:14:11;;;;;;;9.82;3.82;;;;;;;;;;302798;107;2371035;-72
2021/07/08 00:15:18;;;;;;;7.49;3.99;;;;;;;;;;310148;107;2476979;-71
2021/07/08 00:16:24;;;;;;;8.20;4.06;;;;;;;;;;369912;107;1962019;-71
2021/07/08 00:17:29;;;;;;;9.66;4.34;;;;;;;;;;370104;107;1962061;-72
2021/07/08 00:18:35;;;;;;;7.67;4.08;;;;;;;;;;370031;107;1963890;-71
2021/07/08 00:19:39;;;;;;;9.05;4.00;;;;;;;;;;369612;107;1961870;-71
2021/07/08 00:20:46;;;;;;;8.54;4.26;;;;;;;;;;371021;107;1961945;-72
2021/07/08 00:21:51;;;;;;;9.85;4.18;;;;;;;;;;370736;107;1962979;-71
2021/07/08 00:23:04;;;;;;;8.29;4.01;;;;;;;;;;395634;104;1986873;-73
2021/07/08 00:24:10;;;;;;;8.50;4.22;;;;;;;;;;348531;107;1965941;-73
2021/07/08 00:25:16;;;;;;;6.97;4.01;;;;;;;;;;307172;107;2350003;-73
2021/07/08 00:26:24;;;;;;;8.37;3.72;;;;;;;;;;368509;108;1961996;-73
2021/07/08 00:27:56;;;;;;;9.03;3.91;;;;;;;;;;372372;99;2611036;-73
2021/07/08 00:29:02;;;;;;;8.77;4.65;;;;;;;;;;356721;101;2047011;-74
2021/07/08 00:30:08;;;;;;;8.44;3.76;;;;;;;;;;393926;101;1962024;-74
2021/07/08 00:31:13;;;;;;;8.27;4.24;;;;;;;;;;389768;101;1961789;-72
2021/07/08 00:32:18;;;;;;;8.81;3.97;;;;;;;;;;389544;102;1964006;-73
2021/07/08 00:33:23;;;;;;;6.74;3.78;;;;;;;;;;390358;101;1964045;-74
2021/07/08 00:34:28;;;;;;;6.99;3.98;;;;;;;;;;377641;102;1962062;-72
2021/07/08 00:35:34;;;;;;;7.83;3.81;;;;;;;;;;342335;102;2160078;-73
2021/07/08 00:36:46;;;;;;;7.80;4.10;;;;;;;;;;394945;104;1965054;-73
2021/07/08 00:37:51;;;;;;;8.13;4.04;;;;;;;;;;375082;107;1961860;-72
2021/07/08 00:38:57;;;;;;;7.40;4.23;;;;;;;;;;374908;107;1962000;-73
2021/07/08 00:40:03;;;;;;;9.63;4.49;;;;;;;;;;374277;107;1961056;-72
2021/07/08 00:41:08;;;;;;;8.44;4.59;;;;;;;;;;374525;105;1962055;-73
2021/07/08 00:42:13;;;;;;;11.01;4.58;;;;;;;;;;373828;105;1962067;-72
2021/07/08 00:43:19;;;;;;;6.51;3.89;;;;;;;;;;373942;107;1961907;-73
2021/07/08 00:44:24;;;;;;;7.16;3.91;;;;;;;;;;375303;107;1961969;-72
2021/07/08 00:45:35;;;;;;;10.69;3.92;;;;;;;;;;394717;103;1986053;-72
2021/07/08 00:46:41;;;;;;;8.68;4.24;;;;;;;;;;374158;105;1965008;-74
2021/07/08 00:47:46;;;;;;;8.61;4.08;;;;;;;;;;375888;106;1964917;-72
2021/07/08 00:48:51;;;;;;;8.29;3.84;;;;;;;;;;374888;106;1961952;-72
2021/07/08 00:49:56;;;;;;;8.14;3.98;;;;;;;;;;375316;105;1963000;-72
2021/07/08 00:51:01;;;;;;;6.98;4.16;;;;;;;;;;374613;106;1961016;-73
2021/07/08 00:52:06;;;;;;;6.82;3.61;;;;;;;;;;371441;107;1961968;-71
2021/07/08 00:53:12;;;;;;;7.32;4.18;;;;;;;;;;371581;107;1962890;-72
2021/07/08 00:54:17;;;;;;;7.13;3.69;;;;;;;;;;376588;105;1962086;-74
2021/07/08 00:55:22;;;;;;;8.82;3.96;;;;;;;;;;375680;105;1963012;-73
2021/07/08 00:56:34;;;;;;;6.67;4.03;;;;;;;;;;375537;105;1961985;-73
2021/07/08 00:57:41;;;;;;;9.04;4.21;;;;;;;;;;371721;106;1962313;-72
2021/07/08 00:59:05;;;;;;;7.70;4.39;;;;;;;;;;379067;104;1985931;-73
2021/07/08 01:00:13;;;;;;;8.33;4.15;;;;;;;;;;328601;106;2839079;-73
2021/07/08 01:01:18;;;;;;;9.37;4.57;;;;;;;;;;353594;107;1962036;-73
2021/07/08 01:02:24;;;;;;;9.11;4.47;;;;;;;;;;326824;107;2147019;-72
2021/07/08 01:03:29;;;;;;;8.77;4.59;;;;;;;;;;360542;107;1962024;-73
2021/07/08 01:04:35;;;;;;;6.54;4.04;;;;;;;;;;369941;107;1962089;-73
2021/07/08 01:05:41;;;;;;;9.56;4.37;;;;;;;;;;361449;107;1960875;-73
2021/07/08 01:06:49;;;;;;;10.21;5.12;;;;;;;;;;371746;107;1962008;-73
2021/07/08 01:07:55;;;;;;;8.29;4.40;;;;;;;;;;371317;107;1960930;-73
2021/07/08 01:09:01;;;;;;;7.38;3.73;;;;;;;;;;330793;107;2871900;-71
2021/07/08 01:10:06;;;;;;;10.28;3.88;;;;;;;;;;349789;107;1961976;-72
2021/07/08 01:11:11;;;;;;;7.06;4.05;;;;;;;;;;340336;107;2030976;-73
2021/07/08 01:12:17;;;;;;;9.79;4.04;;;;;;;;;;300884;107;2392030;-73
2021/07/08 01:13:22;;;;;;;5.87;4.16;;;;;;;;;;332760;107;2087887;-74
2021/07/08 01:14:27;;;;;;;8.45;4.23;;;;;;;;;;312552;107;2282939;-72
2021/07/08 01:15:33;;;;;;;9.35;4.52;;;;;;;;;;298671;107;2399013;-73
2021/07/08 01:16:38;;;;;;;8.08;3.88;;;;;;;;;;353508;107;1962059;-73
2021/07/08 01:17:44;;;;;;;7.46;4.05;;;;;;;;;;319615;107;2209005;-73
2021/07/08 01:18:49;;;;;;;7.80;4.14;;;;;;;;;;349311;107;1962831;-73
2021/07/08 01:19:54;;;;;;;11.23;4.03;;;;;;;;;;345390;107;1962042;-73
2021/07/08 01:21:02;;;;;;;9.32;4.25;;;;;;;;;;306986;107;2309030;-74
2021/07/08 01:22:06;;;;;;;6.74;4.09;;;;;;;;;;368438;107;1962059;-73
2021/07/08 01:23:12;;;;;;;7.62;4.09;;;;;;;;;;370640;107;1961994;-72
2021/07/08 01:24:17;;;;;;;14.54;3.93;;;;;;;;;;371550;107;1964984;-72
2021/07/08 01:25:30;;;;;;;8.75;4.26;;;;;;;;;;385057;106;1986069;-72
2021/07/08 01:26:37;;;;;;;7.06;4.42;;;;;;;;;;372659;108;1961930;-73
2021/07/08 01:27:43;;;;;;;7.39;4.39;;;;;;;;;;360880;108;1962016;-72
2021/07/08 01:28:49;;;;;;;7.26;4.17;;;;;;;;;;366984;105;1960809;-72
2021/07/08 01:29:54;;;;;;;8.79;4.41;;;;;;;;;;373536;108;1960792;-73
2021/07/08 01:30:59;;;;;;;6.84;4.47;;;;;;;;;;372487;108;1960725;-73
2021/07/08 01:32:04;;;;;;;8.12;4.50;;;;;;;;;;372125;107;1960751;-73
2021/07/08 01:33:09;;;;;;;8.45;4.09;;;;;;;;;;371551;106;1961947;-73
2021/07/08 01:34:21;;;;;;;8.99;4.71;;;;;;;;;;393564;104;1985993;-74
2021/07/08 01:35:26;;;;;;;8.78;4.94;;;;;;;;;;376168;105;1969940;-73
2021/07/08 01:36:31;;;;;;;9.11;4.81;;;;;;;;;;368202;107;1962086;-72
2021/07/08 01:37:37;;;;;;;9.03;4.53;;;;;;;;;;360145;110;1962106;-71
2021/07/08 01:38:48;;;;;;;9.24;4.86;;;;;;;;;;390009;104;2071064;-73
2021/07/08 01:39:53;;;;;;;8.33;4.22;;;;;;;;;;373956;105;1962060;-72
2021/07/08 01:40:59;;;;;;;9.98;4.43;;;;;;;;;;373211;105;1962028;-74
2021/07/08 01:42:04;;;;;;;7.51;3.94;;;;;;;;;;372195;107;1963854;-73
2021/07/08 01:43:09;;;;;;;8.67;4.38;;;;;;;;;;373446;107;1962038;-73
2021/07/08 01:44:21;;;;;;;13.66;4.26;;;;;;;;;;391890;104;1986908;-72
2021/07/08 01:45:25;;;;;;;9.61;4.42;;;;;;;;;;374984;105;1963089;-72
2021/07/08 01:46:31;;;;;;;10.21;4.09;;;;;;;;;;368742;107;1961915;-74
2021/07/08 01:47:36;;;;;;;8.42;3.89;;;;;;;;;;370659;107;1961972;-74
2021/07/08 01:48:42;;;;;;;8.80;4.26;;;;;;;;;;370326;107;1962077;-71
2021/07/08 01:49:47;;;;;;;9.16;4.86;;;;;;;;;;369593;107;1962028;-74
2021/07/08 01:50:52;;;;;;;7.64;4.04;;;;;;;;;;371687;107;1964033;-73
2021/07/08 01:51:57;;;;;;;7.93;4.34;;;;;;;;;;369557;107;1962062;-73
2021/07/08 01:53:02;;;;;;;7.85;4.19;;;;;;;;;;368976;107;1963028;-73
2021/07/08 01:54:14;;;;;;;9.92;4.06;;;;;;;;;;404752;101;1985896;-73
2021/07/08 01:55:19;;;;;;;10.01;4.36;;;;;;;;;;387621;103;1962017;-73
2021/07/08 01:56:27;;;;;;;11.04;5.14;;;;;;;;;;383305;103;1962882;-71
2021/07/08 01:57:32;;;;;;;8.84;4.53;;;;;;;;;;343885;103;2538034;-73
2021/07/08 01:58:38;;;;;;;9.92;4.42;;;;;;;;;;313522;103;2354969;-73
2021/07/08 01:59:43;;;;;;;9.24;5.18;;;;;;;;;;344565;105;2072040;-70
2021/07/08 02:00:48;;;;;;;9.84;4.63;;;;;;;;;;357349;107;1964078;-71
2021/07/08 02:01:54;;;;;;;9.14;4.82;;;;;;;;;;335581;103;2159865;-73
2021/07/08 02:02:59;;;;;;;8.92;4.59;;;;;;;;;;321279;103;2288007;-71
2021/07/08 02:04:04;;;;;;;9.08;4.17;;;;;;;;;;351757;104;2548901;-71
2021/07/08 02:05:10;;;;;;;10.18;4.49;;;;;;;;;;316218;103;2330961;-72
2021/07/08 02:06:17;;;;;;;8.98;4.44;;;;;;;;;;377332;105;1962849;-72
2021/07/08 02:07:22;;;;;;;10.55;4.73;;;;;;;;;;384437;103;1961893;-72
2021/07/08 02:08:36;;;;;;;10.09;4.47;;;;;;;;;;385711;106;1985984;-71
2021/07/08 02:09:40;;;;;;;8.23;4.07;;;;;;;;;;360104;107;2892069;-72
2021/07/08 02:10:47;;;;;;;10.88;4.58;;;;;;;;;;350779;107;1963039;-72
2021/07/08 02:11:52;;;;;;;9.83;4.69;;;;;;;;;;320980;109;2131922;-73
2021/07/08 02:12:57;;;;;;;10.16;4.63;;;;;;;;;;291817;109;2401950;-73
2021/07/08 02:14:03;;;;;;;11.52;4.11;;;;;;;;;;317365;109;2166976;-74
2021/07/08 02:15:09;;;;;;;8.51;4.24;;;;;;;;;;317329;109;2158078;-74
2021/07/08 02:16:14;;;;;;;8.25;4.22;;;;;;;;;;364526;109;1963056;-74
2021/07/08 02:17:19;;;;;;;8.50;4.50;;;;;;;;;;351450;109;1962075;-72
2021/07/08 02:18:24;;;;;;;8.49;4.09;;;;;;;;;;326715;109;2070070;-73
2021/07/08 02:19:29;;;;;;;8.77;4.25;;;;;;;;;;331632;109;2037031;-73
2021/07/08 02:20:36;;;;;;;7.82;4.19;;;;;;;;;;364073;109;1963891;-73
2021/07/08 02:21:48;;;;;;;9.61;4.95;;;;;;;;;;385463;106;1985954;-73
2021/07/08 02:22:53;;;;;;;9.98;4.18;;;;;;;;;;369108;107;1962063;-72
2021/07/08 02:24:00;;;;;;;10.43;4.34;;;;;;;;;;369099;107;1962072;-72
2021/07/08 02:25:06;;;;;;;10.39;4.80;;;;;;;;;;369524;107;1961932;-74
2021/07/08 02:26:12;;;;;;;11.19;4.45;;;;;;;;;;311341;109;2207051;-70
2021/07/08 02:27:17;;;;;;;10.01;5.09;;;;;;;;;;295834;109;2418922;-73
2021/07/08 02:28:22;;;;;;;7.62;4.16;;;;;;;;;;287244;110;2406989;-73
2021/07/08 02:29:28;;;;;;;8.68;4.79;;;;;;;;;;303245;109;2268050;-74
2021/07/08 02:30:33;;;;;;;9.39;4.63;;;;;;;;;;344482;109;1964073;-72
2021/07/08 02:31:38;;;;;;;10.51;5.19;;;;;;;;;;329844;109;2011957;-74
2021/07/08 02:32:44;;;;;;;8.52;3.99;;;;;;;;;;292231;109;2369279;-73
2021/07/08 02:33:50;;;;;;;11.22;5.28;;;;;;;;;;359838;109;1961918;-74
2021/07/08 02:34:56;;;;;;;10.29;5.37;;;;;;;;;;357869;109;1964069;-74
2021/07/08 02:36:01;;;;;;;11.14;4.99;;;;;;;;;;359754;109;1961952;-72
2021/07/08 02:37:07;;;;;;;10.26;5.08;;;;;;;;;;361474;109;1961857;-72
2021/07/08 02:38:11;;;;;;;8.63;4.95;;;;;;;;;;361348;109;1964345;-73
2021/07/08 02:39:16;;;;;;;8.88;5.29;;;;;;;;;;361275;109;1961944;-73
2021/07/08 02:40:23;;;;;;;9.44;5.47;;;;;;;;;;353201;109;1963022;-73
2021/07/08 02:41:35;;;;;;;9.66;4.48;;;;;;;;;;393012;103;1985994;-72
2021/07/08 02:42:42;;;;;;;10.02;4.54;;;;;;;;;;375915;105;1969825;-72
2021/07/08 02:43:48;;;;;;;10.06;4.62;;;;;;;;;;342090;105;2636003;-72
2021/07/08 02:44:53;;;;;;;12.10;5.86;;;;;;;;;;335884;105;2092984;-72
2021/07/08 02:45:58;;;;;;;10.54;4.90;;;;;;;;;;301314;106;2405905;-73
2021/07/08 02:47:04;;;;;;;16.18;5.05;;;;;;;;;;314383;105;2302005;-72
2021/07/08 02:48:10;;;;;;;11.71;4.73;;;;;;;;;;313414;105;2294958;-72
2021/07/08 02:49:15;;;;;;;9.38;4.82;;;;;;;;;;368121;108;1962923;-72
2021/07/08 02:50:22;;;;;;;11.39;5.09;;;;;;;;;;376829;105;1962973;-74
2021/07/08 02:51:27;;;;;;;10.58;4.28;;;;;;;;;;376890;105;1962040;-73
2021/07/08 02:52:32;;;;;;;10.84;4.92;;;;;;;;;;375809;105;1961993;-73
2021/07/08 02:53:37;;;;;;;13.52;5.33;;;;;;;;;;376005;105;1962039;-73
2021/07/08 02:54:42;;;;;;;12.69;4.77;;;;;;;;;;376288;105;1963018;-73
2021/07/08 02:55:48;;;;;;;9.35;4.99;;;;;;;;;;375940;105;1962020;-72
2021/07/08 02:56:55;;;;;;;14.18;4.94;;;;;;;;;;376816;105;1961979;-73
2021/07/08 02:57:59;;;;;;;11.09;4.75;;;;;;;;;;375995;105;1962046;-72
2021/07/08 02:59:04;;;;;;;11.29;5.37;;;;;;;;;;377083;105;1963900;-72
2021/07/08 03:00:10;;;;;;;9.28;4.55;;;;;;;;;;376163;105;1961979;-73
2021/07/08 03:01:15;;;;;;;8.34;4.89;;;;;;;;;;374787;105;1962004;-72
2021/07/08 03:02:20;;;;;;;10.66;5.79;;;;;;;;;;377249;105;1962033;-73
2021/07/08 03:03:26;;;;;;;12.89;5.35;;;;;;;;;;376614;105;1961905;-73
2021/07/08 03:04:31;;;;;;;10.49;4.97;;;;;;;;;;376075;105;1963023;-73
2021/07/08 03:05:36;;;;;;;11.14;5.19;;;;;;;;;;375819;105;1962362;-73
2021/07/08 03:06:42;;;;;;;13.08;5.47;;;;;;;;;;377100;105;1962072;-73
2021/07/08 03:07:55;;;;;;;10.46;4.96;;;;;;;;;;382177;106;1985890;-72
2021/07/08 03:09:00;;;;;;;12.93;6.03;;;;;;;;;;356787;109;2957073;-73
2021/07/08 03:10:06;;;;;;;9.26;5.23;;;;;;;;;;362692;110;1962096;-74
2021/07/08 03:11:18;;;;;;;8.97;5.01;;;;;;;;;;393984;104;1963007;-73
2021/07/08 03:12:22;;;;;;;8.79;5.08;;;;;;;;;;375490;105;1961987;-71
2021/07/08 03:13:27;;;;;;;8.83;5.08;;;;;;;;;;355224;105;1962027;-72
2021/07/08 03:14:33;;;;;;;12.91;5.53;;;;;;;;;;319915;105;2232959;-71
2021/07/08 03:15:45;;;;;;;12.15;4.84;;;;;;;;;;387714;104;2072069;-72
2021/07/08 03:16:50;;;;;;;15.25;5.15;;;;;;;;;;369693;107;1969992;-73
2021/07/08 03:17:57;;;;;;;15.29;6.33;;;;;;;;;;368006;107;1962019;-73
2021/07/08 03:19:02;;;;;;;11.50;5.01;;;;;;;;;;367349;107;1961965;-73
2021/07/08 03:21:23;;;;;;;10.80;5.21;;;;;;;;;;395980;104;1985955;-73
2021/07/08 03:22:27;;;;;;;10.78;5.30;;;;;;;;;;381075;105;1969961;-73
2021/07/08 03:23:34;;;;;;;15.57;5.72;;;;;;;;;;380377;105;1964015;-73
2021/07/08 03:24:40;;;;;;;13.36;5.92;;;;;;;;;;378703;105;1964093;-73
2021/07/08 03:25:45;;;;;;;12.92;5.56;;;;;;;;;;380051;105;1962024;-74
2021/07/08 03:26:57;;;;;;;10.52;6.05;;;;;;;;;;355433;104;2101995;-72
2021/07/08 03:28:03;;;;;;;12.51;6.33;;;;;;;;;;321564;105;2471034;-73
2021/07/08 03:29:09;;;;;;;10.57;6.07;;;;;;;;;;373979;105;1961986;-73
2021/07/08 03:31:30;;;;;;;12.10;6.88;;;;;;;;;;384317;106;1985975;-74
2021/07/08 03:32:36;;;;;;;12.30;5.55;;;;;;;;;;367453;109;1961934;-73
2021/07/08 03:33:41;;;;;;;13.62;5.97;;;;;;;;;;368800;109;1961954;-74
2021/07/08 03:34:46;;;;;;;10.62;5.66;;;;;;;;;;367787;109;1961972;-72
2021/07/08 03:35:51;;;;;;;13.10;6.31;;;;;;;;;;367284;109;1962060;-73
2021/07/08 03:36:56;;;;;;;12.95;7.44;;;;;;;;;;365785;109;1962062;-73
2021/07/08 03:38:08;;;;;;;13.97;7.13;;;;;;;;;;393490;104;1988027;-73
2021/07/08 03:39:13;;;;;;;16.73;6.95;;;;;;;;;;375343;107;1966058;-72
2021/07/08 03:40:19;;;;;;;12.96;5.69;;;;;;;;;;374908;107;1963009;-73
2021/07/08 03:41:24;;;;;;;16.76;7.14;;;;;;;;;;367598;109;1961995;-74
2021/07/08 03:42:29;;;;;;;14.72;5.92;;;;;;;;;;366953;109;1962122;-71
2021/07/08 03:43:34;;;;;;;14.14;5.71;;;;;;;;;;366537;109;1963069;-74
2021/07/08 03:44:39;;;;;;;12.47;5.98;;;;;;;;;;367089;109;1962082;-73
2021/07/08 03:45:44;;;;;;;13.06;5.17;;;;;;;;;;368496;109;1962898;-72
2021/07/08 03:46:50;;;;;;;12.22;5.21;;;;;;;;;;366442;109;1961991;-72
2021/07/08 03:47:55;;;;;;;11.36;5.45;;;;;;;;;;368438;109;1961970;-73
2021/07/08 03:49:01;;;;;;;12.24;6.21;;;;;;;;;;367451;109;1963082;-73
2021/07/08 03:50:13;;;;;;;16.51;8.57;;;;;;;;;;390666;104;1985896;-73
2021/07/08 03:51:18;;;;;;;11.10;5.54;;;;;;;;;;371374;107;1968989;-72
2021/07/08 03:52:30;;;;;;;12.96;5.86;;;;;;;;;;393884;104;1985815;-73
2021/07/08 03:53:35;;;;;;;15.70;5.70;;;;;;;;;;376471;105;1968950;-73
2021/07/08 03:54:58;;;;;;;14.11;5.65;;;;;;;;;;377147;105;1961952;-73
2021/07/08 03:56:03;;;;;;;12.79;5.59;;;;;;;;;;369343;105;1962016;-71
2021/07/08 03:57:08;;;;;;;15.28;6.93;;;;;;;;;;366997;107;1962020;-72
2021/07/08 03:58:20;;;;;;;11.72;5.82;;;;;;;;;;404605;101;1986986;-73
2021/07/08 04:00:30;;;;;;;14.21;5.68;;;;;;;;;;399904;101;1982899;-73
2021/07/08 04:01:35;;;;;;;14.11;6.48;;;;;;;;;;384045;103;1970010;-72
2021/07/08 04:02:40;;;;;;;13.97;5.51;;;;;;;;;;385364;103;1961965;-72
2021/07/08 04:03:46;;;;;;;17.01;6.68;;;;;;;;;;383982;103;1964999;-72
2021/07/08 04:04:57;;;;;;;9.78;5.61;;;;;;;;;;395494;104;1986952;-73
2021/07/08 04:06:02;;;;;;;13.11;5.98;;;;;;;;;;376551;105;1970106;-73
2021/07/08 04:07:08;;;;;;;15.33;6.83;;;;;;;;;;374218;107;1962875;-72
2021/07/08 04:08:14;;;;;;;14.91;6.79;;;;;;;;;;368988;107;1960931;-73
2021/07/08 04:09:19;;;;;;;15.55;6.73;;;;;;;;;;370741;107;1960791;-73
2021/07/08 04:10:24;;;;;;;12.19;6.21;;;;;;;;;;375879;107;1960872;-74
2021/07/08 04:11:29;;;;;;;16.81;6.72;;;;;;;;;;375219;105;1960806;-73
2021/07/08 04:12:34;;;;;;;13.57;6.11;;;;;;;;;;376832;105;1960646;-73
2021/07/08 04:14:05;;;;;;;15.68;6.77;;;;;;;;;;412620;99;1984861;-73
2021/07/08 04:15:10;;;;;;;14.08;5.47;;;;;;;;;;396082;101;1960757;-71
2021/07/08 04:16:17;;;;;;;13.87;5.41;;;;;;;;;;391136;102;1960853;-72
2021/07/08 04:17:28;;;;;;;15.89;6.88;;;;;;;;;;397383;103;1984836;-72
2021/07/08 04:18:34;;;;;;;11.20;5.21;;;;;;;;;;380549;105;1960700;-72
2021/07/08 04:19:39;;;;;;;12.67;5.72;;;;;;;;;;382641;103;1960645;-73
2021/07/08 04:20:45;;;;;;;11.36;5.69;;;;;;;;;;378765;103;1960756;-73
2021/07/08 04:21:56;;;;;;;12.33;5.97;;;;;;;;;;370869;106;2069798;-73
2021/07/08 04:23:03;;;;;;;10.91;5.77;;;;;;;;;;316354;105;2260825;-72
2021/07/08 04:24:10;;;;;;;19.29;7.29;;;;;;;;;;372983;106;1960837;-73
2021/07/08 04:25:15;;;;;;;11.06;6.09;;;;;;;;;;372838;105;1960712;-73
2021/07/08 04:26:21;;;;;;;13.75;5.32;;;;;;;;;;368585;109;1960935;-72
2021/07/08 04:27:27;;;;;;;14.44;5.83;;;;;;;;;;366726;108;1960649;-73
2021/07/08 04:28:32;;;;;;;9.70;5.18;;;;;;;;;;366596;108;1960836;-72
2021/07/08 04:29:37;;;;;;;11.28;6.01;;;;;;;;;;367351;109;1960754;-74
2021/07/08 04:30:42;;;;;;;11.81;6.79;;;;;;;;;;366813;108;1960721;-73
2021/07/08 04:31:48;;;;;;;12.00;5.69;;;;;;;;;;366936;107;1960846;-75
2021/07/08 04:32:53;;;;;;;11.04;6.24;;;;;;;;;;367481;108;1960819;-74
2021/07/08 04:34:00;;;;;;;13.31;6.46;;;;;;;;;;366254;109;1962901;-74
2021/07/08 04:35:06;;;;;;;15.64;8.61;;;;;;;;;;366673;109;1963005;-74
2021/07/08 04:36:12;;;;;;;18.06;7.24;;;;;;;;;;363349;109;1960769;-74
2021/07/08 04:37:17;;;;;;;15.06;6.86;;;;;;;;;;365155;109;1960822;-75
2021/07/08 04:38:22;;;;;;;12.66;5.88;;;;;;;;;;347347;108;1960989;-74
2021/07/08 04:39:34;;;;;;;12.84;5.78;;;;;;;;;;392991;103;1984822;-74
2021/07/08 04:40:40;;;;;;;11.90;5.43;;;;;;;;;;376572;105;1967753;-74
2021/07/08 04:41:47;;;;;;;10.22;5.65;;;;;;;;;;369694;107;1961994;-74
2021/07/08 04:42:52;;;;;;;15.19;6.19;;;;;;;;;;371613;107;1965045;-74
2021/07/08 04:43:59;;;;;;;11.92;6.00;;;;;;;;;;371323;107;1963964;-75
2021/07/08 04:45:06;;;;;;;9.12;5.09;;;;;;;;;;335420;107;2892985;-74
2021/07/08 04:46:11;;;;;;;12.00;5.47;;;;;;;;;;363740;109;1962045;-74
2021/07/08 04:47:23;;;;;;;13.37;6.71;;;;;;;;;;384354;106;1986005;-71
2021/07/08 04:48:28;;;;;;;14.15;6.89;;;;;;;;;;368979;108;1970341;-71
2021/07/08 04:49:37;;;;;;;12.96;6.55;;;;;;;;;;368442;108;1961989;-74
2021/07/08 04:50:43;;;;;;;13.02;6.58;;;;;;;;;;358237;108;1962029;-74
2021/07/08 04:51:48;;;;;;;8.86;4.56;;;;;;;;;;341362;111;1962864;-74
2021/07/08 04:52:54;;;;;;;14.22;6.44;;;;;;;;;;301164;111;2315019;-73
2021/07/08 04:54:00;;;;;;;11.78;5.54;;;;;;;;;;361188;109;1961964;-74
2021/07/08 04:55:06;;;;;;;12.29;6.51;;;;;;;;;;362167;109;1963768;-73
2021/07/08 04:56:12;;;;;;;13.97;7.02;;;;;;;;;;360938;109;1962005;-73
2021/07/08 04:57:18;;;;;;;10.09;5.57;;;;;;;;;;361171;111;1962019;-73
2021/07/08 04:58:23;;;;;;;13.87;5.83;;;;;;;;;;361280;111;1961994;-73
2021/07/08 04:59:28;;;;;;;11.44;5.24;;;;;;;;;;362126;109;1961946;-75
2021/07/08 05:00:33;;;;;;;18.16;6.36;;;;;;;;;;360162;109;1962038;-73
2021/07/08 05:01:45;;;;;;;13.86;6.46;;;;;;;;;;394084;104;1986970;-72
2021/07/08 05:02:52;;;;;;;9.43;5.21;;;;;;;;;;375398;107;1969992;-73
2021/07/08 05:04:00;;;;;;;13.22;6.51;;;;;;;;;;375146;107;1965021;-73
2021/07/08 05:05:07;;;;;;;10.98;4.47;;;;;;;;;;374901;105;1962041;-73
2021/07/08 05:06:19;;;;;;;13.29;7.44;;;;;;;;;;384483;104;1986037;-73
2021/07/08 05:07:24;;;;;;;10.14;5.82;;;;;;;;;;349164;107;1986031;-74
2021/07/08 05:08:29;;;;;;;10.68;5.23;;;;;;;;;;330460;107;2176092;-74
2021/07/08 05:09:42;;;;;;;12.57;5.27;;;;;;;;;;393925;104;1987953;-75
2021/07/08 05:10:48;;;;;;;12.97;6.08;;;;;;;;;;370865;106;1969037;-74
2021/07/08 05:11:53;;;;;;;12.45;6.65;;;;;;;;;;370407;107;1962064;-73
2021/07/08 05:12:59;;;;;;;8.12;4.99;;;;;;;;;;370810;108;1964972;-74
2021/07/08 05:14:04;;;;;;;8.46;5.14;;;;;;;;;;363409;110;1963088;-73
2021/07/08 05:15:13;;;;;;;11.22;5.12;;;;;;;;;;362222;111;1962931;-77
2021/07/08 05:16:22;;;;;;;13.02;5.85;;;;;;;;;;369690;109;1961940;-73
2021/07/08 05:17:28;;;;;;;12.91;5.38;;;;;;;;;;341424;109;2010059;-76
2021/07/08 05:18:33;;;;;;;13.96;7.41;;;;;;;;;;314341;109;2279997;-73
2021/07/08 05:19:39;;;;;;;10.13;5.36;;;;;;;;;;322170;109;2558019;-73
2021/07/08 05:20:45;;;;;;;10.56;5.04;;;;;;;;;;369703;109;1962011;-73
2021/07/08 05:21:51;;;;;;;14.99;7.44;;;;;;;;;;369824;107;1962987;-73
2021/07/08 05:23:05;;;;;;;14.55;6.79;;;;;;;;;;370133;108;1964032;-73
2021/07/08 05:24:10;;;;;;;12.79;6.62;;;;;;;;;;369149;107;1961912;-75
2021/07/08 05:25:16;;;;;;;13.43;6.63;;;;;;;;;;370277;107;1962027;-75
2021/07/08 05:26:28;;;;;;;13.86;6.79;;;;;;;;;;370062;109;1961961;-74
2021/07/08 05:27:33;;;;;;;16.31;7.04;;;;;;;;;;371620;107;1962050;-74
2021/07/08 05:28:38;;;;;;;17.70;6.95;;;;;;;;;;368712;108;1961995;-73
2021/07/08 05:29:44;;;;;;;10.94;6.61;;;;;;;;;;358045;108;1961927;-74
2021/07/08 05:30:51;;;;;;;11.97;6.20;;;;;;;;;;361426;110;1963067;-73
2021/07/08 05:31:56;;;;;;;11.45;5.29;;;;;;;;;;362613;109;1961984;-74
2021/07/08 05:33:01;;;;;;;10.52;4.97;;;;;;;;;;363084;109;1960796;-74
2021/07/08 05:34:06;;;;;;;10.26;5.43;;;;;;;;;;361680;109;1962021;-74
2021/07/08 05:35:11;;;;;;;11.31;5.82;;;;;;;;;;369422;109;1962003;-74
2021/07/08 05:36:28;;;;;;;15.26;5.70;;;;;;;;;;368527;109;1961996;-73
2021/07/08 05:37:33;;;;;;;11.89;5.01;;;;;;;;;;373780;106;1962023;-74
2021/07/08 05:38:39;;;;;;;16.12;7.78;;;;;;;;;;373353;106;1963053;-73
2021/07/08 05:39:44;;;;;;;14.83;6.70;;;;;;;;;;371272;106;1962008;-74
2021/07/08 05:40:49;;;;;;;15.01;6.73;;;;;;;;;;363183;108;1962011;-74
2021/07/08 05:41:54;;;;;;;12.02;5.67;;;;;;;;;;358898;110;1962014;-73
2021/07/08 05:42:59;;;;;;;22.71;15.73;;;;;;;;;;362467;110;1962043;-74
2021/07/08 05:44:05;;;;;;;19.32;9.91;;;;;;;;;;351121;110;1961915;-74
2021/07/08 05:45:17;;;;;;;13.79;6.43;;;;;;;;;;390285;104;2071980;-75
2021/07/08 05:46:23;;;;;;;9.62;4.64;;;;;;;;;;368406;107;1970822;-75
2021/07/08 05:47:35;;;;;;;8.94;4.79;;;;;;;;;;388401;106;1986032;-73
2021/07/08 05:48:40;;;;;;;12.17;5.04;;;;;;;;;;372593;107;1970037;-73
2021/07/08 05:50:04;;;;;;;13.09;6.26;;;;;;;;;;373101;107;1961981;-73
2021/07/08 05:51:17;;;;;;;12.21;6.24;;;;;;;;;;389223;104;2070927;-72
2021/07/08 05:52:22;;;;;;;11.04;5.24;;;;;;;;;;374881;108;1962060;-74
2021/07/08 05:53:28;;;;;;;12.90;5.38;;;;;;;;;;372937;106;1962980;-73
2021/07/08 05:54:34;;;;;;;11.47;5.64;;;;;;;;;;373081;107;1961952;-72
2021/07/08 05:55:39;;;;;;;15.46;6.74;;;;;;;;;;332474;108;2147051;-74
2021/07/08 05:56:45;;;;;;;16.04;6.44;;;;;;;;;;322779;107;2235908;-74
2021/07/08 05:57:51;;;;;;;16.16;6.41;;;;;;;;;;337952;106;2670028;-73
2021/07/08 05:58:57;;;;;;;21.49;6.59;;;;;;;;;;373553;108;1962070;-74
2021/07/08 06:00:04;;;;;;;18.79;6.16;;;;;;;;;;370546;107;1962856;-74
2021/07/08 06:01:11;;;;;;;24.69;6.95;;;;;;;;;;373562;106;1961995;-74
2021/07/08 06:02:16;;;;;;;25.91;6.82;;;;;;;;;;374566;107;1962015;-74
2021/07/08 06:03:22;;;;;;;21.99;6.74;;;;;;;;;;371854;108;1966006;-74
2021/07/08 06:04:27;;;;;;;21.18;6.91;;;;;;;;;;370702;105;1961930;-75
2021/07/08 06:05:33;;;;;;;17.44;6.21;;;;;;;;;;361334;110;1962024;-73
2021/07/08 06:06:45;;;;;;;18.47;6.33;;;;;;;;;;341264;104;2305280;-74
2021/07/08 06:07:50;;;;;;;20.73;5.83;;;;;;;;;;318441;108;2607883;-74
2021/07/08 06:08:56;;;;;;;20.19;7.02;;;;;;;;;;376521;107;1960748;-74
2021/07/08 06:10:02;;;;;;;21.44;6.89;;;;;;;;;;359887;107;1960918;-74
2021/07/08 06:11:07;;;;;;;21.28;6.48;;;;;;;;;;376831;107;1960759;-74
2021/07/08 06:12:12;;;;;;;20.52;6.75;;;;;;;;;;347396;107;1962067;-75
2021/07/08 06:13:24;;;;;;;25.32;7.13;;;;;;;;;;397371;104;1986225;-74
2021/07/08 06:14:29;;;;;;;17.81;6.59;;;;;;;;;;382814;103;1970061;-74
2021/07/08 06:15:34;;;;;;;18.54;7.43;;;;;;;;;;356073;103;1994923;-72
2021/07/08 06:16:40;;;;;;;22.68;7.25;;;;;;;;;;376091;105;1961981;-73
2021/07/08 06:17:45;;;;;;;26.79;6.26;;;;;;;;;;344697;105;2070039;-74
2021/07/08 06:18:50;;;;;;;18.38;6.40;;;;;;;;;;320316;105;2283978;-75
2021/07/08 06:19:56;;;;;;;20.25;6.26;;;;;;;;;;336477;105;2155426;-73
2021/07/08 06:21:07;;;;;;;18.59;5.43;;;;;;;;;;393322;103;1985966;-74
2021/07/08 06:22:12;;;;;;;21.13;5.56;;;;;;;;;;376470;106;1970023;-73
2021/07/08 06:23:20;;;;;;;15.61;5.24;;;;;;;;;;340878;107;2107933;-73
2021/07/08 06:24:24;;;;;;;17.37;5.34;;;;;;;;;;368542;109;1961874;-73
2021/07/08 06:25:36;;;;;;;20.96;5.41;;;;;;;;;;395792;103;1986064;-74
2021/07/08 06:26:41;;;;;;;16.20;4.78;;;;;;;;;;376043;107;1969979;-74
2021/07/08 06:27:46;;;;;;;13.05;4.46;;;;;;;;;;375815;107;1962013;-74